sensor_id;sensor_type;location;lat;lon;timestamp;P1;durP1;ratioP1;P2;durP2;ratioP2
12968;SDS011;6549;53.128;8.182;2022-08-01T00:01:57;3.67;;;2.95;;
12968;SDS011;6549;53.128;8.182;2022-08-01T00:04:57;4.00;;;2.78;;
12968;SDS011;6549;53.128;8.182;2022-08-01T00:07:58;2.83;;;2.35;;
12968;SDS011;6549;53.128;8.182;2022-08-01T00:10:59;2.88;;;2.47;;
12968;SDS011;6549;53.128;8.182;2022-08-01T00:13:59;3.47;;;3.17;;
12968;SDS011;6549;53.128;8.182;2022-08-01T00:16:59;3.38;;;2.55;;
12968;SDS011;6549;53.128;8.182;2022-08-01T00:20:00;3.60;;;2.75;;
12968;SDS011;6549;53.128;8.182;2022-08-01T00:23:02;3.03;;;2.42;;
12968;SDS011;6549;53.128;8.182;2022-08-01T00:26:03;3.78;;;2.78;;
12968;SDS011;6549;53.128;8.182;2022-08-01T00:29:03;4.47;;;3.60;;
12968;SDS011;6549;53.128;8.182;2022-08-01T00:32:04;4.05;;;3.03;;
12968;SDS011;6549;53.128;8.182;2022-08-01T00:35:04;3.10;;;2.65;;
12968;SDS011;6549;53.128;8.182;2022-08-01T00:38:05;4.22;;;3.78;;
12968;SDS011;6549;53.128;8.182;2022-08-01T00:41:05;5.30;;;3.63;;
12968;SDS011;6549;53.128;8.182;2022-08-01T00:44:06;6.00;;;4.47;;
12968;SDS011;6549;53.128;8.182;2022-08-01T00:47:06;6.30;;;4.30;;
12968;SDS011;6549;53.128;8.182;2022-08-01T00:50:07;6.95;;;4.97;;
12968;SDS011;6549;53.128;8.182;2022-08-01T00:53:08;7.10;;;5.03;;
12968;SDS011;6549;53.128;8.182;2022-08-01T00:56:09;6.05;;;4.57;;
12968;SDS011;6549;53.128;8.182;2022-08-01T00:59:11;7.53;;;4.72;;
12968;SDS011;6549;53.128;8.182;2022-08-01T01:02:12;7.10;;;4.75;;
12968;SDS011;6549;53.128;8.182;2022-08-01T01:05:12;4.75;;;3.65;;
12968;SDS011;6549;53.128;8.182;2022-08-01T01:08:21;5.85;;;3.50;;
12968;SDS011;6549;53.128;8.182;2022-08-01T01:15:06;4.95;;;3.53;;
12968;SDS011;6549;53.128;8.182;2022-08-01T01:18:32;4.97;;;3.63;;
12968;SDS011;6549;53.128;8.182;2022-08-01T01:21:59;7.10;;;4.40;;
12968;SDS011;6549;53.128;8.182;2022-08-01T01:29:02;7.00;;;3.75;;
12968;SDS011;6549;53.128;8.182;2022-08-01T01:32:28;8.63;;;5.35;;
12968;SDS011;6549;53.128;8.182;2022-08-01T01:35:34;8.13;;;5.75;;
12968;SDS011;6549;53.128;8.182;2022-08-01T01:38:42;7.35;;;4.80;;
12968;SDS011;6549;53.128;8.182;2022-08-01T01:41:44;7.50;;;5.10;;
12968;SDS011;6549;53.128;8.182;2022-08-01T01:47:48;6.80;;;3.90;;
12968;SDS011;6549;53.128;8.182;2022-08-01T01:50:49;6.90;;;5.15;;
12968;SDS011;6549;53.128;8.182;2022-08-01T01:53:52;4.90;;;3.95;;
12968;SDS011;6549;53.128;8.182;2022-08-01T01:59:56;6.20;;;4.10;;
12968;SDS011;6549;53.128;8.182;2022-08-01T02:02:59;6.18;;;5.00;;
12968;SDS011;6549;53.128;8.182;2022-08-01T02:06:02;5.63;;;4.80;;
12968;SDS011;6549;53.128;8.182;2022-08-01T02:09:04;7.10;;;4.80;;
12968;SDS011;6549;53.128;8.182;2022-08-01T02:12:05;5.67;;;4.37;;
12968;SDS011;6549;53.128;8.182;2022-08-01T02:15:07;5.43;;;4.13;;
12968;SDS011;6549;53.128;8.182;2022-08-01T02:18:09;6.50;;;5.15;;
12968;SDS011;6549;53.128;8.182;2022-08-01T02:21:14;6.50;;;3.90;;
12968;SDS011;6549;53.128;8.182;2022-08-01T02:28:00;4.80;;;3.75;;
12968;SDS011;6549;53.128;8.182;2022-08-01T02:31:05;5.68;;;3.30;;
12968;SDS011;6549;53.128;8.182;2022-08-01T02:34:09;4.13;;;3.35;;
12968;SDS011;6549;53.128;8.182;2022-08-01T02:37:15;6.22;;;3.30;;
12968;SDS011;6549;53.128;8.182;2022-08-01T02:40:17;3.93;;;2.90;;
12968;SDS011;6549;53.128;8.182;2022-08-01T02:43:18;3.28;;;2.78;;
12968;SDS011;6549;53.128;8.182;2022-08-01T02:46:30;4.15;;;3.55;;
12968;SDS011;6549;53.128;8.182;2022-08-01T02:49:36;5.35;;;3.20;;
12968;SDS011;6549;53.128;8.182;2022-08-01T02:52:42;4.60;;;3.45;;
12968;SDS011;6549;53.128;8.182;2022-08-01T02:55:45;5.55;;;3.70;;
12968;SDS011;6549;53.128;8.182;2022-08-01T02:58:47;4.10;;;3.42;;
12968;SDS011;6549;53.128;8.182;2022-08-01T03:01:48;6.22;;;3.95;;
12968;SDS011;6549;53.128;8.182;2022-08-01T03:04:51;3.88;;;3.22;;
12968;SDS011;6549;53.128;8.182;2022-08-01T03:07:53;5.13;;;3.97;;
12968;SDS011;6549;53.128;8.182;2022-08-01T03:10:55;7.38;;;4.18;;
12968;SDS011;6549;53.128;8.182;2022-08-01T03:13:59;4.03;;;3.17;;
12968;SDS011;6549;53.128;8.182;2022-08-01T03:17:03;5.80;;;4.28;;
12968;SDS011;6549;53.128;8.182;2022-08-01T03:23:09;7.53;;;4.05;;
12968;SDS011;6549;53.128;8.182;2022-08-01T03:26:11;5.45;;;3.92;;
12968;SDS011;6549;53.128;8.182;2022-08-01T03:29:12;6.30;;;3.95;;
12968;SDS011;6549;53.128;8.182;2022-08-01T03:32:18;5.57;;;4.20;;
12968;SDS011;6549;53.128;8.182;2022-08-01T03:35:19;5.72;;;3.85;;
12968;SDS011;6549;53.128;8.182;2022-08-01T03:38:23;5.60;;;3.70;;
12968;SDS011;6549;53.128;8.182;2022-08-01T03:41:27;4.18;;;3.45;;
12968;SDS011;6549;53.128;8.182;2022-08-01T03:44:32;4.05;;;3.10;;
12968;SDS011;6549;53.128;8.182;2022-08-01T03:47:38;4.82;;;3.28;;
12968;SDS011;6549;53.128;8.182;2022-08-01T03:50:45;5.00;;;3.97;;
12968;SDS011;6549;53.128;8.182;2022-08-01T03:53:48;4.50;;;3.33;;
12968;SDS011;6549;53.128;8.182;2022-08-01T03:56:53;4.55;;;3.30;;
12968;SDS011;6549;53.128;8.182;2022-08-01T03:59:55;6.25;;;3.67;;
12968;SDS011;6549;53.128;8.182;2022-08-01T04:05:58;5.10;;;3.10;;
12968;SDS011;6549;53.128;8.182;2022-08-01T04:08:58;4.15;;;3.13;;
12968;SDS011;6549;53.128;8.182;2022-08-01T04:11:59;3.83;;;2.75;;
12968;SDS011;6549;53.128;8.182;2022-08-01T04:15:01;5.47;;;2.88;;
12968;SDS011;6549;53.128;8.182;2022-08-01T04:18:01;4.70;;;2.60;;
12968;SDS011;6549;53.128;8.182;2022-08-01T04:21:02;4.28;;;2.65;;
12968;SDS011;6549;53.128;8.182;2022-08-01T04:24:10;4.18;;;2.28;;
12968;SDS011;6549;53.128;8.182;2022-08-01T04:27:16;6.97;;;2.80;;
12968;SDS011;6549;53.128;8.182;2022-08-01T04:30:23;4.80;;;2.60;;
12968;SDS011;6549;53.128;8.182;2022-08-01T04:33:25;4.57;;;2.30;;
12968;SDS011;6549;53.128;8.182;2022-08-01T04:36:30;5.30;;;2.30;;
12968;SDS011;6549;53.128;8.182;2022-08-01T04:39:34;6.05;;;2.63;;
12968;SDS011;6549;53.128;8.182;2022-08-01T04:42:36;5.93;;;2.38;;
12968;SDS011;6549;53.128;8.182;2022-08-01T04:45:37;7.90;;;2.58;;
12968;SDS011;6549;53.128;8.182;2022-08-01T04:48:38;5.07;;;2.72;;
12968;SDS011;6549;53.128;8.182;2022-08-01T04:51:52;5.43;;;2.08;;
12968;SDS011;6549;53.128;8.182;2022-08-01T04:55:03;6.20;;;2.78;;
12968;SDS011;6549;53.128;8.182;2022-08-01T04:58:08;6.53;;;2.95;;
12968;SDS011;6549;53.128;8.182;2022-08-01T05:01:10;8.80;;;3.08;;
12968;SDS011;6549;53.128;8.182;2022-08-01T05:04:11;6.85;;;2.60;;
12968;SDS011;6549;53.128;8.182;2022-08-01T05:07:11;8.55;;;3.25;;
12968;SDS011;6549;53.128;8.182;2022-08-01T05:10:12;6.45;;;2.88;;
12968;SDS011;6549;53.128;8.182;2022-08-01T05:13:13;8.20;;;3.80;;
12968;SDS011;6549;53.128;8.182;2022-08-01T05:16:13;9.45;;;3.65;;
12968;SDS011;6549;53.128;8.182;2022-08-01T05:19:14;12.32;;;4.10;;
12968;SDS011;6549;53.128;8.182;2022-08-01T05:22:14;7.10;;;3.75;;
12968;SDS011;6549;53.128;8.182;2022-08-01T05:25:14;10.48;;;3.63;;
12968;SDS011;6549;53.128;8.182;2022-08-01T05:28:15;8.25;;;3.80;;
12968;SDS011;6549;53.128;8.182;2022-08-01T05:31:15;10.75;;;3.63;;
12968;SDS011;6549;53.128;8.182;2022-08-01T05:34:16;9.98;;;4.00;;
12968;SDS011;6549;53.128;8.182;2022-08-01T05:37:17;10.13;;;3.60;;
12968;SDS011;6549;53.128;8.182;2022-08-01T05:40:17;8.45;;;3.83;;
12968;SDS011;6549;53.128;8.182;2022-08-01T05:43:17;6.63;;;3.55;;
12968;SDS011;6549;53.128;8.182;2022-08-01T05:46:18;8.65;;;3.60;;
12968;SDS011;6549;53.128;8.182;2022-08-01T05:49:18;12.13;;;4.18;;
12968;SDS011;6549;53.128;8.182;2022-08-01T05:52:18;11.10;;;3.90;;
12968;SDS011;6549;53.128;8.182;2022-08-01T05:55:19;11.25;;;4.00;;
12968;SDS011;6549;53.128;8.182;2022-08-01T05:58:19;11.05;;;3.50;;
12968;SDS011;6549;53.128;8.182;2022-08-01T06:01:19;10.70;;;4.10;;
12968;SDS011;6549;53.128;8.182;2022-08-01T06:04:20;8.18;;;3.50;;
12968;SDS011;6549;53.128;8.182;2022-08-01T06:07:20;12.80;;;4.05;;
12968;SDS011;6549;53.128;8.182;2022-08-01T06:10:20;12.30;;;3.63;;
12968;SDS011;6549;53.128;8.182;2022-08-01T06:13:21;14.32;;;4.55;;
12968;SDS011;6549;53.128;8.182;2022-08-01T06:16:22;15.93;;;3.97;;
12968;SDS011;6549;53.128;8.182;2022-08-01T06:19:22;11.40;;;3.95;;
12968;SDS011;6549;53.128;8.182;2022-08-01T06:22:22;14.90;;;3.90;;
12968;SDS011;6549;53.128;8.182;2022-08-01T06:25:23;10.45;;;3.88;;
12968;SDS011;6549;53.128;8.182;2022-08-01T06:28:23;11.18;;;4.00;;
12968;SDS011;6549;53.128;8.182;2022-08-01T06:31:24;12.25;;;4.10;;
12968;SDS011;6549;53.128;8.182;2022-08-01T06:34:24;15.82;;;4.50;;
12968;SDS011;6549;53.128;8.182;2022-08-01T06:37:28;13.40;;;4.25;;
12968;SDS011;6549;53.128;8.182;2022-08-01T06:40:30;13.68;;;3.95;;
12968;SDS011;6549;53.128;8.182;2022-08-01T06:43:30;16.02;;;3.95;;
12968;SDS011;6549;53.128;8.182;2022-08-01T06:46:33;9.30;;;3.35;;
12968;SDS011;6549;53.128;8.182;2022-08-01T06:49:43;14.60;;;3.72;;
12968;SDS011;6549;53.128;8.182;2022-08-01T06:52:43;16.10;;;3.90;;
12968;SDS011;6549;53.128;8.182;2022-08-01T06:55:43;20.40;;;4.43;;
12968;SDS011;6549;53.128;8.182;2022-08-01T06:58:44;16.40;;;3.92;;
12968;SDS011;6549;53.128;8.182;2022-08-01T07:01:44;14.02;;;3.33;;
12968;SDS011;6549;53.128;8.182;2022-08-01T07:04:44;11.40;;;3.60;;
12968;SDS011;6549;53.128;8.182;2022-08-01T07:07:45;14.23;;;3.40;;
12968;SDS011;6549;53.128;8.182;2022-08-01T07:10:45;13.75;;;3.22;;
12968;SDS011;6549;53.128;8.182;2022-08-01T07:13:46;15.18;;;3.63;;
12968;SDS011;6549;53.128;8.182;2022-08-01T07:16:46;15.45;;;2.95;;
12968;SDS011;6549;53.128;8.182;2022-08-01T07:19:47;13.68;;;3.40;;
12968;SDS011;6549;53.128;8.182;2022-08-01T07:22:48;15.60;;;3.42;;
12968;SDS011;6549;53.128;8.182;2022-08-01T07:25:48;11.02;;;3.25;;
12968;SDS011;6549;53.128;8.182;2022-08-01T07:28:50;15.95;;;3.65;;
12968;SDS011;6549;53.128;8.182;2022-08-01T07:31:51;12.30;;;3.17;;
12968;SDS011;6549;53.128;8.182;2022-08-01T07:34:56;12.57;;;3.60;;
12968;SDS011;6549;53.128;8.182;2022-08-01T07:37:56;12.13;;;3.20;;
12968;SDS011;6549;53.128;8.182;2022-08-01T07:40:56;12.90;;;3.17;;
12968;SDS011;6549;53.128;8.182;2022-08-01T07:43:57;12.13;;;2.95;;
12968;SDS011;6549;53.128;8.182;2022-08-01T07:46:57;14.40;;;3.35;;
12968;SDS011;6549;53.128;8.182;2022-08-01T07:50:04;13.80;;;3.25;;
12968;SDS011;6549;53.128;8.182;2022-08-01T07:53:05;12.63;;;3.30;;
12968;SDS011;6549;53.128;8.182;2022-08-01T07:56:06;11.98;;;3.17;;
12968;SDS011;6549;53.128;8.182;2022-08-01T07:59:06;11.60;;;2.72;;
12968;SDS011;6549;53.128;8.182;2022-08-01T08:02:06;16.63;;;3.20;;
12968;SDS011;6549;53.128;8.182;2022-08-01T08:05:07;9.45;;;2.90;;
12968;SDS011;6549;53.128;8.182;2022-08-01T08:08:08;13.65;;;3.10;;
12968;SDS011;6549;53.128;8.182;2022-08-01T08:11:10;10.38;;;2.75;;
12968;SDS011;6549;53.128;8.182;2022-08-01T08:14:10;13.07;;;2.58;;
12968;SDS011;6549;53.128;8.182;2022-08-01T08:17:11;12.65;;;2.80;;
12968;SDS011;6549;53.128;8.182;2022-08-01T08:20:11;11.00;;;2.47;;
12968;SDS011;6549;53.128;8.182;2022-08-01T08:23:12;11.40;;;2.80;;
12968;SDS011;6549;53.128;8.182;2022-08-01T08:26:31;11.55;;;2.80;;
12968;SDS011;6549;53.128;8.182;2022-08-01T08:29:31;9.50;;;2.53;;
12968;SDS011;6549;53.128;8.182;2022-08-01T08:32:32;9.02;;;2.53;;
12968;SDS011;6549;53.128;8.182;2022-08-01T08:35:32;15.63;;;2.80;;
12968;SDS011;6549;53.128;8.182;2022-08-01T08:38:33;14.85;;;2.90;;
12968;SDS011;6549;53.128;8.182;2022-08-01T08:41:33;14.00;;;2.63;;
12968;SDS011;6549;53.128;8.182;2022-08-01T08:44:34;18.38;;;2.80;;
12968;SDS011;6549;53.128;8.182;2022-08-01T08:47:34;12.70;;;2.63;;
12968;SDS011;6549;53.128;8.182;2022-08-01T08:50:35;8.93;;;2.38;;
12968;SDS011;6549;53.128;8.182;2022-08-01T08:53:37;7.80;;;2.38;;
12968;SDS011;6549;53.128;8.182;2022-08-01T08:56:43;13.13;;;2.42;;
12968;SDS011;6549;53.128;8.182;2022-08-01T08:59:45;12.10;;;2.60;;
12968;SDS011;6549;53.128;8.182;2022-08-01T09:02:47;8.27;;;2.42;;
12968;SDS011;6549;53.128;8.182;2022-08-01T09:05:49;12.73;;;2.30;;
12968;SDS011;6549;53.128;8.182;2022-08-01T09:08:49;9.00;;;2.50;;
12968;SDS011;6549;53.128;8.182;2022-08-01T09:11:50;9.60;;;2.47;;
12968;SDS011;6549;53.128;8.182;2022-08-01T09:14:53;9.98;;;2.20;;
12968;SDS011;6549;53.128;8.182;2022-08-01T09:17:55;9.57;;;2.47;;
12968;SDS011;6549;53.128;8.182;2022-08-01T09:21:09;8.13;;;2.20;;
12968;SDS011;6549;53.128;8.182;2022-08-01T09:24:17;9.68;;;2.33;;
12968;SDS011;6549;53.128;8.182;2022-08-01T09:27:20;11.85;;;2.53;;
12968;SDS011;6549;53.128;8.182;2022-08-01T09:30:23;11.10;;;2.15;;
12968;SDS011;6549;53.128;8.182;2022-08-01T09:33:23;8.98;;;2.22;;
12968;SDS011;6549;53.128;8.182;2022-08-01T09:36:25;14.20;;;2.47;;
12968;SDS011;6549;53.128;8.182;2022-08-01T09:39:30;9.73;;;2.30;;
12968;SDS011;6549;53.128;8.182;2022-08-01T09:42:37;10.57;;;2.95;;
12968;SDS011;6549;53.128;8.182;2022-08-01T09:45:37;9.90;;;2.05;;
12968;SDS011;6549;53.128;8.182;2022-08-01T09:48:38;11.32;;;2.05;;
12968;SDS011;6549;53.128;8.182;2022-08-01T09:51:39;9.37;;;2.50;;
12968;SDS011;6549;53.128;8.182;2022-08-01T09:54:40;8.75;;;2.17;;
12968;SDS011;6549;53.128;8.182;2022-08-01T09:57:54;10.15;;;2.17;;
12968;SDS011;6549;53.128;8.182;2022-08-01T10:00:59;8.40;;;2.00;;
12968;SDS011;6549;53.128;8.182;2022-08-01T10:04:10;9.18;;;2.22;;
12968;SDS011;6549;53.128;8.182;2022-08-01T10:07:13;11.15;;;2.33;;
12968;SDS011;6549;53.128;8.182;2022-08-01T10:13:15;9.27;;;1.93;;
12968;SDS011;6549;53.128;8.182;2022-08-01T10:16:16;8.27;;;1.85;;
12968;SDS011;6549;53.128;8.182;2022-08-01T10:19:16;10.05;;;2.15;;
12968;SDS011;6549;53.128;8.182;2022-08-01T10:25:22;9.00;;;2.30;;
12968;SDS011;6549;53.128;8.182;2022-08-01T10:28:23;9.37;;;1.83;;
12968;SDS011;6549;53.128;8.182;2022-08-01T10:31:25;10.27;;;2.20;;
12968;SDS011;6549;53.128;8.182;2022-08-01T10:34:30;7.82;;;1.75;;
12968;SDS011;6549;53.128;8.182;2022-08-01T10:37:32;7.43;;;2.00;;
12968;SDS011;6549;53.128;8.182;2022-08-01T10:40:34;7.03;;;1.90;;
12968;SDS011;6549;53.128;8.182;2022-08-01T10:43:36;12.10;;;2.17;;
12968;SDS011;6549;53.128;8.182;2022-08-01T10:46:39;12.68;;;2.65;;
12968;SDS011;6549;53.128;8.182;2022-08-01T10:53:20;10.23;;;2.25;;
12968;SDS011;6549;53.128;8.182;2022-08-01T10:56:22;8.45;;;2.10;;
12968;SDS011;6549;53.128;8.182;2022-08-01T10:59:24;8.63;;;1.90;;
12968;SDS011;6549;53.128;8.182;2022-08-01T11:02:30;10.10;;;2.13;;
12968;SDS011;6549;53.128;8.182;2022-08-01T11:05:34;6.72;;;1.90;;
12968;SDS011;6549;53.128;8.182;2022-08-01T11:08:36;5.50;;;2.00;;
12968;SDS011;6549;53.128;8.182;2022-08-01T11:12:00;8.88;;;1.88;;
12968;SDS011;6549;53.128;8.182;2022-08-01T11:22:09;9.00;;;1.90;;
12968;SDS011;6549;53.128;8.182;2022-08-01T11:24:57;11.88;;;2.38;;
12968;SDS011;6549;53.128;8.182;2022-08-01T11:31:25;7.50;;;1.90;;
12968;SDS011;6549;53.128;8.182;2022-08-01T11:37:53;9.32;;;2.17;;
12968;SDS011;6549;53.128;8.182;2022-08-01T11:44:18;9.18;;;1.92;;
12968;SDS011;6549;53.128;8.182;2022-08-01T11:47:42;7.60;;;1.88;;
12968;SDS011;6549;53.128;8.182;2022-08-01T11:50:47;7.68;;;2.03;;
12968;SDS011;6549;53.128;8.182;2022-08-01T11:53:50;6.85;;;1.88;;
12968;SDS011;6549;53.128;8.182;2022-08-01T11:56:52;8.98;;;1.83;;
12968;SDS011;6549;53.128;8.182;2022-08-01T11:59:56;7.78;;;2.33;;
12968;SDS011;6549;53.128;8.182;2022-08-01T12:02:58;8.13;;;2.10;;
12968;SDS011;6549;53.128;8.182;2022-08-01T12:06:00;8.85;;;2.17;;
12968;SDS011;6549;53.128;8.182;2022-08-01T12:09:20;10.23;;;2.10;;
12968;SDS011;6549;53.128;8.182;2022-08-01T12:12:21;6.68;;;1.80;;
12968;SDS011;6549;53.128;8.182;2022-08-01T12:15:22;7.60;;;1.80;;
12968;SDS011;6549;53.128;8.182;2022-08-01T12:18:24;7.38;;;1.70;;
12968;SDS011;6549;53.128;8.182;2022-08-01T12:21:24;6.55;;;2.05;;
12968;SDS011;6549;53.128;8.182;2022-08-01T12:24:24;6.63;;;1.65;;
12968;SDS011;6549;53.128;8.182;2022-08-01T12:27:28;5.65;;;1.90;;
12968;SDS011;6549;53.128;8.182;2022-08-01T12:30:30;6.15;;;1.75;;
12968;SDS011;6549;53.128;8.182;2022-08-01T12:33:31;6.35;;;1.70;;
12968;SDS011;6549;53.128;8.182;2022-08-01T12:36:31;7.25;;;1.77;;
12968;SDS011;6549;53.128;8.182;2022-08-01T12:39:32;5.35;;;1.60;;
12968;SDS011;6549;53.128;8.182;2022-08-01T12:42:35;5.70;;;1.67;;
12968;SDS011;6549;53.128;8.182;2022-08-01T12:45:39;6.93;;;2.00;;
12968;SDS011;6549;53.128;8.182;2022-08-01T12:48:44;8.35;;;1.70;;
12968;SDS011;6549;53.128;8.182;2022-08-01T12:51:45;5.60;;;1.83;;
12968;SDS011;6549;53.128;8.182;2022-08-01T12:58:14;5.25;;;1.75;;
12968;SDS011;6549;53.128;8.182;2022-08-01T13:01:15;6.50;;;1.65;;
12968;SDS011;6549;53.128;8.182;2022-08-01T13:04:15;8.18;;;2.03;;
12968;SDS011;6549;53.128;8.182;2022-08-01T13:07:16;6.85;;;1.90;;
12968;SDS011;6549;53.128;8.182;2022-08-01T13:10:30;5.45;;;1.90;;
12968;SDS011;6549;53.128;8.182;2022-08-01T13:13:37;5.60;;;1.70;;
12968;SDS011;6549;53.128;8.182;2022-08-01T13:16:46;5.97;;;1.63;;
12968;SDS011;6549;53.128;8.182;2022-08-01T13:19:47;7.35;;;1.83;;
12968;SDS011;6549;53.128;8.182;2022-08-01T13:22:49;8.48;;;1.92;;
12968;SDS011;6549;53.128;8.182;2022-08-01T13:25:50;6.15;;;1.65;;
12968;SDS011;6549;53.128;8.182;2022-08-01T13:29:05;9.38;;;2.25;;
12968;SDS011;6549;53.128;8.182;2022-08-01T13:32:13;8.82;;;1.85;;
12968;SDS011;6549;53.128;8.182;2022-08-01T13:35:15;6.40;;;1.65;;
12968;SDS011;6549;53.128;8.182;2022-08-01T13:38:20;6.20;;;1.50;;
12968;SDS011;6549;53.128;8.182;2022-08-01T13:41:40;5.63;;;1.83;;
12968;SDS011;6549;53.128;8.182;2022-08-01T13:44:41;5.85;;;2.00;;
12968;SDS011;6549;53.128;8.182;2022-08-01T13:47:42;10.20;;;2.10;;
12968;SDS011;6549;53.128;8.182;2022-08-01T13:50:43;6.72;;;1.92;;
12968;SDS011;6549;53.128;8.182;2022-08-01T13:53:43;6.50;;;1.90;;
12968;SDS011;6549;53.128;8.182;2022-08-01T13:56:44;6.47;;;1.75;;
12968;SDS011;6549;53.128;8.182;2022-08-01T13:59:44;7.40;;;1.85;;
12968;SDS011;6549;53.128;8.182;2022-08-01T14:02:44;7.18;;;1.83;;
12968;SDS011;6549;53.128;8.182;2022-08-01T14:05:45;7.18;;;1.70;;
12968;SDS011;6549;53.128;8.182;2022-08-01T14:08:46;7.30;;;1.88;;
12968;SDS011;6549;53.128;8.182;2022-08-01T14:11:46;7.38;;;1.85;;
12968;SDS011;6549;53.128;8.182;2022-08-01T14:14:47;6.20;;;1.90;;
12968;SDS011;6549;53.128;8.182;2022-08-01T14:17:47;5.50;;;1.63;;
12968;SDS011;6549;53.128;8.182;2022-08-01T14:20:47;3.67;;;1.40;;
12968;SDS011;6549;53.128;8.182;2022-08-01T14:23:48;4.72;;;1.70;;
12968;SDS011;6549;53.128;8.182;2022-08-01T14:26:48;8.23;;;2.00;;
12968;SDS011;6549;53.128;8.182;2022-08-01T14:29:48;6.80;;;1.77;;
12968;SDS011;6549;53.128;8.182;2022-08-01T14:32:49;4.85;;;1.70;;
12968;SDS011;6549;53.128;8.182;2022-08-01T14:35:49;7.25;;;1.88;;
12968;SDS011;6549;53.128;8.182;2022-08-01T14:38:49;6.68;;;2.00;;
12968;SDS011;6549;53.128;8.182;2022-08-01T14:41:50;7.53;;;2.00;;
12968;SDS011;6549;53.128;8.182;2022-08-01T14:44:50;4.00;;;1.80;;
12968;SDS011;6549;53.128;8.182;2022-08-01T14:47:50;5.72;;;1.60;;
12968;SDS011;6549;53.128;8.182;2022-08-01T14:50:51;5.18;;;1.73;;
12968;SDS011;6549;53.128;8.182;2022-08-01T14:53:51;7.65;;;1.70;;
12968;SDS011;6549;53.128;8.182;2022-08-01T14:56:52;4.33;;;1.80;;
12968;SDS011;6549;53.128;8.182;2022-08-01T14:59:53;6.60;;;1.75;;
12968;SDS011;6549;53.128;8.182;2022-08-01T15:02:53;7.10;;;1.88;;
12968;SDS011;6549;53.128;8.182;2022-08-01T15:05:54;7.32;;;1.60;;
12968;SDS011;6549;53.128;8.182;2022-08-01T15:08:54;6.53;;;2.10;;
12968;SDS011;6549;53.128;8.182;2022-08-01T15:11:55;5.57;;;1.90;;
12968;SDS011;6549;53.128;8.182;2022-08-01T15:14:55;6.45;;;1.77;;
12968;SDS011;6549;53.128;8.182;2022-08-01T15:17:56;5.45;;;1.70;;
12968;SDS011;6549;53.128;8.182;2022-08-01T15:20:57;5.78;;;1.67;;
12968;SDS011;6549;53.128;8.182;2022-08-01T15:23:57;7.07;;;1.80;;
12968;SDS011;6549;53.128;8.182;2022-08-01T15:26:57;8.27;;;1.98;;
12968;SDS011;6549;53.128;8.182;2022-08-01T15:29:58;5.50;;;1.70;;
12968;SDS011;6549;53.128;8.182;2022-08-01T15:32:58;5.88;;;1.95;;
12968;SDS011;6549;53.128;8.182;2022-08-01T15:35:58;7.70;;;2.15;;
12968;SDS011;6549;53.128;8.182;2022-08-01T15:38:59;4.40;;;1.88;;
12968;SDS011;6549;53.128;8.182;2022-08-01T15:42:00;7.10;;;2.00;;
12968;SDS011;6549;53.128;8.182;2022-08-01T15:45:04;5.57;;;1.73;;
12968;SDS011;6549;53.128;8.182;2022-08-01T15:48:06;7.07;;;1.60;;
12968;SDS011;6549;53.128;8.182;2022-08-01T15:51:06;7.10;;;1.60;;
12968;SDS011;6549;53.128;8.182;2022-08-01T15:54:07;7.93;;;2.10;;
12968;SDS011;6549;53.128;8.182;2022-08-01T15:57:07;7.13;;;1.83;;
12968;SDS011;6549;53.128;8.182;2022-08-01T16:00:09;4.55;;;1.40;;
12968;SDS011;6549;53.128;8.182;2022-08-01T16:03:10;5.63;;;1.70;;
12968;SDS011;6549;53.128;8.182;2022-08-01T16:06:10;6.10;;;1.95;;
12968;SDS011;6549;53.128;8.182;2022-08-01T16:09:11;5.78;;;1.92;;
12968;SDS011;6549;53.128;8.182;2022-08-01T16:12:11;7.28;;;1.98;;
12968;SDS011;6549;53.128;8.182;2022-08-01T16:15:11;5.05;;;1.95;;
12968;SDS011;6549;53.128;8.182;2022-08-01T16:18:12;6.93;;;2.33;;
12968;SDS011;6549;53.128;8.182;2022-08-01T16:21:13;6.70;;;2.00;;
12968;SDS011;6549;53.128;8.182;2022-08-01T16:24:13;7.85;;;1.90;;
12968;SDS011;6549;53.128;8.182;2022-08-01T16:27:14;6.82;;;1.85;;
12968;SDS011;6549;53.128;8.182;2022-08-01T16:30:15;4.90;;;2.08;;
12968;SDS011;6549;53.128;8.182;2022-08-01T16:33:15;5.55;;;1.83;;
12968;SDS011;6549;53.128;8.182;2022-08-01T16:36:15;9.10;;;2.00;;
12968;SDS011;6549;53.128;8.182;2022-08-01T16:39:16;7.60;;;2.13;;
12968;SDS011;6549;53.128;8.182;2022-08-01T16:42:16;6.78;;;1.95;;
12968;SDS011;6549;53.128;8.182;2022-08-01T16:45:19;8.18;;;2.17;;
12968;SDS011;6549;53.128;8.182;2022-08-01T16:48:20;8.65;;;2.65;;
12968;SDS011;6549;53.128;8.182;2022-08-01T16:51:20;7.03;;;1.98;;
12968;SDS011;6549;53.128;8.182;2022-08-01T16:54:21;5.18;;;2.05;;
12968;SDS011;6549;53.128;8.182;2022-08-01T16:57:21;6.20;;;1.90;;
12968;SDS011;6549;53.128;8.182;2022-08-01T17:00:21;3.92;;;1.73;;
12968;SDS011;6549;53.128;8.182;2022-08-01T17:03:25;8.65;;;2.33;;
12968;SDS011;6549;53.128;8.182;2022-08-01T17:06:25;8.82;;;2.25;;
12968;SDS011;6549;53.128;8.182;2022-08-01T17:09:25;7.40;;;1.98;;
12968;SDS011;6549;53.128;8.182;2022-08-01T17:12:29;11.90;;;2.50;;
12968;SDS011;6549;53.128;8.182;2022-08-01T17:15:31;8.63;;;2.22;;
12968;SDS011;6549;53.128;8.182;2022-08-01T17:18:33;6.82;;;2.15;;
12968;SDS011;6549;53.128;8.182;2022-08-01T17:21:33;8.75;;;2.30;;
12968;SDS011;6549;53.128;8.182;2022-08-01T17:24:35;6.55;;;2.30;;
12968;SDS011;6549;53.128;8.182;2022-08-01T17:27:35;8.48;;;2.35;;
12968;SDS011;6549;53.128;8.182;2022-08-01T17:30:36;9.30;;;2.30;;
12968;SDS011;6549;53.128;8.182;2022-08-01T17:33:39;8.98;;;2.63;;
12968;SDS011;6549;53.128;8.182;2022-08-01T17:36:40;7.05;;;2.65;;
12968;SDS011;6549;53.128;8.182;2022-08-01T17:39:40;6.43;;;2.13;;
12968;SDS011;6549;53.128;8.182;2022-08-01T17:42:41;7.05;;;2.08;;
12968;SDS011;6549;53.128;8.182;2022-08-01T17:45:41;8.13;;;2.20;;
12968;SDS011;6549;53.128;8.182;2022-08-01T17:48:44;5.32;;;2.30;;
12968;SDS011;6549;53.128;8.182;2022-08-01T17:51:46;5.85;;;2.35;;
12968;SDS011;6549;53.128;8.182;2022-08-01T17:54:46;7.07;;;2.13;;
12968;SDS011;6549;53.128;8.182;2022-08-01T17:57:46;5.18;;;2.00;;
12968;SDS011;6549;53.128;8.182;2022-08-01T18:00:47;8.02;;;2.17;;
12968;SDS011;6549;53.128;8.182;2022-08-01T18:03:47;9.32;;;2.47;;
12968;SDS011;6549;53.128;8.182;2022-08-01T18:06:47;7.55;;;2.10;;
12968;SDS011;6549;53.128;8.182;2022-08-01T18:09:48;7.90;;;2.38;;
12968;SDS011;6549;53.128;8.182;2022-08-01T18:12:49;6.53;;;2.08;;
12968;SDS011;6549;53.128;8.182;2022-08-01T18:15:50;6.05;;;2.05;;
12968;SDS011;6549;53.128;8.182;2022-08-01T18:18:50;7.72;;;2.08;;
12968;SDS011;6549;53.128;8.182;2022-08-01T18:21:51;9.63;;;2.30;;
12968;SDS011;6549;53.128;8.182;2022-08-01T18:24:51;4.95;;;1.85;;
12968;SDS011;6549;53.128;8.182;2022-08-01T18:27:51;5.72;;;2.20;;
12968;SDS011;6549;53.128;8.182;2022-08-01T18:30:52;8.85;;;2.42;;
12968;SDS011;6549;53.128;8.182;2022-08-01T18:33:52;7.72;;;2.13;;
12968;SDS011;6549;53.128;8.182;2022-08-01T18:36:52;8.32;;;2.25;;
12968;SDS011;6549;53.128;8.182;2022-08-01T18:39:55;7.13;;;2.10;;
12968;SDS011;6549;53.128;8.182;2022-08-01T18:42:55;5.05;;;1.73;;
12968;SDS011;6549;53.128;8.182;2022-08-01T18:45:56;8.43;;;2.30;;
12968;SDS011;6549;53.128;8.182;2022-08-01T18:48:56;6.10;;;1.90;;
12968;SDS011;6549;53.128;8.182;2022-08-01T18:51:57;6.68;;;2.22;;
12968;SDS011;6549;53.128;8.182;2022-08-01T18:54:57;8.88;;;2.13;;
12968;SDS011;6549;53.128;8.182;2022-08-01T18:57:58;10.02;;;2.45;;
12968;SDS011;6549;53.128;8.182;2022-08-01T19:00:58;7.95;;;2.38;;
12968;SDS011;6549;53.128;8.182;2022-08-01T19:03:58;7.50;;;3.40;;
12968;SDS011;6549;53.128;8.182;2022-08-01T19:06:59;7.32;;;2.17;;
12968;SDS011;6549;53.128;8.182;2022-08-01T19:09:59;8.25;;;2.15;;
12968;SDS011;6549;53.128;8.182;2022-08-01T19:12:59;5.75;;;1.90;;
12968;SDS011;6549;53.128;8.182;2022-08-01T19:16:01;5.75;;;2.35;;
12968;SDS011;6549;53.128;8.182;2022-08-01T19:19:02;4.78;;;1.92;;
12968;SDS011;6549;53.128;8.182;2022-08-01T19:22:04;7.63;;;2.15;;
12968;SDS011;6549;53.128;8.182;2022-08-01T19:25:05;8.02;;;2.35;;